Huvudsida
METAR-TAF:

METAR-TAF

Flygplatser :

Skövde, Sverige

latitud: 58-27N, longitud: 013-58E, höjd: 98 m

Aktuellt väderrapport

Denna rapport gjordes för 18 minuter sedan, klockan 03:20 UTC
Vind 2 kt från nord/nordost
Temperatur -1°C
Fuktighet 80%
Tryck 998 hPa
Sikt: 3900 m
fuktdis

METAR: ESGR 190320Z AUTO 02002KT 3900 BR OVC003/// M01/M04 Q0998

Tid: 04:38 (03:38 UTC)


TAF: saknas

Aktuella väderrapporter och prognoser från 4000 flygplatser (METAR- och TAF-rapporter).

De tillgängliga stationerna syns som gula och röda prickar på kartan.

För musen över prickarna för att se namnen på stationerna.

Klicka sedan för att få väderrapporter och prognoser.

För att ändra kartan: Klicka på de gröna knapparna med ett svart kors på för att zooma in; den gröna knappen med ett streck på för att zooma ut; eller på de gröna pilarna för angränsande kartor.


METAR-TAF: